createdAt,value
2023-01-23T00:01:32.100Z,17.73
2023-01-23T00:04:00.731Z,17.53
2023-01-23T00:06:29.474Z,17.83
2023-01-23T00:08:57.642Z,17.77
2023-01-23T00:11:27.316Z,18.00
2023-01-23T00:13:58.033Z,18.17
2023-01-23T00:16:28.078Z,18.47
2023-01-23T00:18:55.857Z,17.60
2023-01-23T00:21:27.428Z,17.27
2023-01-23T00:23:57.258Z,19.27
2023-01-23T00:26:26.784Z,17.17
2023-01-23T00:28:56.161Z,17.63
2023-01-23T00:31:26.040Z,18.20
2023-01-23T00:33:56.096Z,17.73
2023-01-23T00:36:24.779Z,18.03
2023-01-23T00:38:52.492Z,19.17
2023-01-23T00:41:20.255Z,19.63
2023-01-23T00:43:48.498Z,20.00
2023-01-23T00:46:17.553Z,21.83
2023-01-23T00:48:45.251Z,20.70
2023-01-23T00:51:13.054Z,20.13
2023-01-23T00:53:40.813Z,19.80
2023-01-23T00:56:09.011Z,19.07
2023-01-23T00:58:36.897Z,21.77
2023-01-23T01:01:04.912Z,20.63
2023-01-23T01:03:34.729Z,20.53
2023-01-23T01:06:02.687Z,19.07
2023-01-23T01:08:30.638Z,20.93
2023-01-23T01:10:58.435Z,21.87
2023-01-23T01:13:26.808Z,20.13
2023-01-23T01:15:55.712Z,21.80
2023-01-23T01:18:24.531Z,20.70
2023-01-23T01:20:53.582Z,19.50
2023-01-23T01:23:21.576Z,21.03
2023-01-23T01:25:49.386Z,20.37
2023-01-23T01:28:17.144Z,20.93
2023-01-23T01:30:45.023Z,20.80
2023-01-23T01:33:12.741Z,18.93
2023-01-23T01:35:42.278Z,19.40
2023-01-23T01:38:11.404Z,20.10
2023-01-23T01:40:39.273Z,19.83
2023-01-23T01:43:09.310Z,18.57
2023-01-23T01:46:00.891Z,19.63
2023-01-23T01:48:34.439Z,19.47
2023-01-23T01:51:03.710Z,19.10
2023-01-23T01:53:34.443Z,19.70
2023-01-23T01:56:02.359Z,19.07
2023-01-23T01:58:30.969Z,18.27
2023-01-23T02:00:58.724Z,21.40
2023-01-23T02:03:27.566Z,19.73
2023-01-23T02:05:55.297Z,19.80
2023-01-23T02:08:27.538Z,20.93
2023-01-23T02:10:56.866Z,20.63
2023-01-23T02:13:30.472Z,19.73
2023-01-23T02:16:00.325Z,20.73
2023-01-23T02:18:29.299Z,20.90
2023-01-23T02:20:59.738Z,21.80
2023-01-23T02:23:35.482Z,23.00
2023-01-23T02:26:08.341Z,21.13
2023-01-23T02:28:40.640Z,23.23
2023-01-23T02:31:09.059Z,23.83
2023-01-23T02:33:49.887Z,24.17
2023-01-23T02:36:20.183Z,23.57
2023-01-23T02:38:55.643Z,24.20
2023-01-23T02:41:30.304Z,24.47
2023-01-23T02:44:01.727Z,24.30
2023-01-23T02:46:29.913Z,25.47
2023-01-23T02:48:57.799Z,25.03
2023-01-23T02:51:25.656Z,24.97
2023-01-23T02:53:53.460Z,25.23
2023-01-23T02:56:21.264Z,23.30
2023-01-23T02:59:08.029Z,25.13
2023-01-23T03:01:36.084Z,24.10
2023-01-23T03:04:06.461Z,23.73
2023-01-23T03:06:37.649Z,24.47
2023-01-23T03:09:20.402Z,23.27
2023-01-23T03:11:48.588Z,23.33
2023-01-23T03:14:19.253Z,24.53
2023-01-23T03:16:51.315Z,22.43
2023-01-23T03:19:20.878Z,25.00
2023-01-23T03:21:48.661Z,24.47
2023-01-23T03:24:16.701Z,25.70
2023-01-23T03:26:45.794Z,26.13
2023-01-23T03:29:35.332Z,27.43
2023-01-23T03:32:03.518Z,23.80
2023-01-23T03:34:32.388Z,24.17
2023-01-23T03:37:01.291Z,22.47
2023-01-23T03:39:55.081Z,22.43
2023-01-23T03:42:23.626Z,24.17
2023-01-23T03:44:53.843Z,24.67
2023-01-23T03:47:21.836Z,24.53
2023-01-23T03:49:49.647Z,25.00
2023-01-23T03:52:17.442Z,23.13
2023-01-23T03:54:45.212Z,23.97
2023-01-23T03:57:12.977Z,24.10
2023-01-23T03:59:40.733Z,23.57
2023-01-23T04:02:10.688Z,26.87
2023-01-23T04:04:38.477Z,26.97
2023-01-23T04:07:07.126Z,27.80
2023-01-23T04:09:35.176Z,28.40
2023-01-23T04:12:02.999Z,28.50
2023-01-23T04:14:35.376Z,27.93
2023-01-23T04:17:03.151Z,27.80
2023-01-23T04:19:32.354Z,29.10
2023-01-23T04:22:00.347Z,27.50
2023-01-23T04:24:28.201Z,28.20
2023-01-23T04:26:56.256Z,27.50
2023-01-23T04:29:24.010Z,27.73
2023-01-23T04:31:51.867Z,27.53
2023-01-23T04:34:19.649Z,27.50
2023-01-23T04:36:48.749Z,29.57
2023-01-23T04:39:16.476Z,27.70
2023-01-23T04:41:44.219Z,27.93
2023-01-23T04:44:22.063Z,25.37
2023-01-23T04:46:50.798Z,25.50
2023-01-23T04:49:19.489Z,27.67
2023-01-23T04:51:50.115Z,26.97
2023-01-23T04:54:18.916Z,26.43
2023-01-23T04:56:47.669Z,25.57
2023-01-23T04:59:16.761Z,25.30
2023-01-23T05:01:44.665Z,24.90
2023-01-23T05:04:12.618Z,24.53
2023-01-23T05:06:40.683Z,25.30
2023-01-23T05:09:09.792Z,23.90
2023-01-23T05:11:37.532Z,25.70
2023-01-23T05:14:05.432Z,27.50
2023-01-23T05:16:33.331Z,27.53
2023-01-23T05:19:01.087Z,25.07
2023-01-23T05:21:28.892Z,26.77
2023-01-23T05:23:56.659Z,24.77
2023-01-23T05:26:25.751Z,27.23
2023-01-23T05:28:53.663Z,28.27
2023-01-23T05:31:21.583Z,28.70
2023-01-23T05:33:49.359Z,26.67
2023-01-23T05:36:18.544Z,28.90
2023-01-23T05:38:46.566Z,26.20
2023-01-23T05:41:14.492Z,29.50
2023-01-23T05:43:44.609Z,28.03
2023-01-23T05:46:12.392Z,28.00
2023-01-23T05:48:40.135Z,27.97
2023-01-23T05:51:07.950Z,27.63
2023-01-23T05:53:35.754Z,27.20
2023-01-23T05:56:07.207Z,27.73
2023-01-23T05:58:34.949Z,27.07
2023-01-23T06:01:04.777Z,27.27
2023-01-23T06:03:32.866Z,83.33
2023-01-23T06:06:02.821Z,29.10
2023-01-23T06:08:30.618Z,29.63
2023-01-23T06:10:59.510Z,28.23
2023-01-23T06:13:27.633Z,26.70
2023-01-23T06:15:56.118Z,29.40
2023-01-23T06:18:25.417Z,30.80
2023-01-23T06:20:58.757Z,30.27
2023-01-23T06:23:26.576Z,31.33
2023-01-23T06:25:54.399Z,31.47
2023-01-23T06:28:22.207Z,30.33
2023-01-23T06:30:51.818Z,30.67
2023-01-23T06:33:19.631Z,31.40
2023-01-23T06:35:48.724Z,32.57
2023-01-23T06:38:16.485Z,31.60
2023-01-23T06:40:45.103Z,29.63
2023-01-23T06:43:12.837Z,29.03
2023-01-23T06:45:40.568Z,29.40
2023-01-23T06:48:08.331Z,26.20
2023-01-23T06:50:39.790Z,28.00
2023-01-23T06:53:10.557Z,26.23
2023-01-23T06:55:38.324Z,27.13
2023-01-23T06:58:06.086Z,26.60
2023-01-23T07:00:35.045Z,26.73
2023-01-23T07:03:03.987Z,26.87
2023-01-23T07:05:32.461Z,25.63
2023-01-23T07:08:00.210Z,27.10
2023-01-23T07:10:29.443Z,24.93
2023-01-23T07:12:57.208Z,25.50
2023-01-23T07:15:28.402Z,25.60
2023-01-23T07:17:56.148Z,24.53
2023-01-23T07:20:27.355Z,24.00
2023-01-23T07:22:55.347Z,26.83
2023-01-23T07:25:26.764Z,24.47
2023-01-23T07:27:55.917Z,22.40
2023-01-23T07:30:23.761Z,36.40
2023-01-23T07:32:51.569Z,23.73
2023-01-23T07:35:19.307Z,23.73
2023-01-23T07:37:47.072Z,23.07
2023-01-23T07:40:15.153Z,22.73
2023-01-23T07:42:42.922Z,22.00
2023-01-23T07:45:13.034Z,22.50
2023-01-23T07:47:41.342Z,21.03
2023-01-23T07:50:11.538Z,21.00
2023-01-23T07:52:39.884Z,21.60
2023-01-23T07:55:08.427Z,22.43
2023-01-23T07:57:36.214Z,21.13
2023-01-23T08:00:05.672Z,21.87
2023-01-23T08:02:34.733Z,21.17
2023-01-23T08:05:02.501Z,20.37
2023-01-23T08:07:30.287Z,21.17
2023-01-23T08:09:58.017Z,22.23
2023-01-23T08:12:25.832Z,22.40
2023-01-23T08:14:53.552Z,23.43
2023-01-23T08:17:21.302Z,22.17
2023-01-23T08:19:50.456Z,21.60
2023-01-23T08:22:18.297Z,22.10
2023-01-23T08:24:46.097Z,22.93
2023-01-23T08:27:13.892Z,23.33
2023-01-23T08:29:41.639Z,23.90
2023-01-23T08:32:09.573Z,23.50
2023-01-23T08:34:37.381Z,22.97
2023-01-23T08:37:06.498Z,23.43
2023-01-23T08:39:35.359Z,23.10
2023-01-23T08:42:03.133Z,25.20
2023-01-23T08:44:32.725Z,25.60
2023-01-23T08:47:01.749Z,25.27
2023-01-23T08:49:29.518Z,24.90
2023-01-23T08:51:58.967Z,25.30
2023-01-23T08:54:28.027Z,25.53
2023-01-23T08:56:55.748Z,23.63
2023-01-23T08:59:23.675Z,23.83
2023-01-23T09:01:52.096Z,23.67
2023-01-23T09:04:19.930Z,25.20
2023-01-23T09:06:51.121Z,23.20
2023-01-23T09:09:19.165Z,22.43
2023-01-23T09:11:48.220Z,23.77
2023-01-23T09:14:15.949Z,22.40
2023-01-23T09:16:43.722Z,22.67
2023-01-23T09:19:12.711Z,21.60
2023-01-23T09:21:40.662Z,21.57
2023-01-23T09:24:08.663Z,21.10
2023-01-23T09:26:36.405Z,21.57
2023-01-23T09:29:05.544Z,20.73
2023-01-23T09:31:33.344Z,21.53
2023-01-23T09:34:03.356Z,20.80
2023-01-23T09:36:42.409Z,21.93
2023-01-23T09:39:10.877Z,22.60
2023-01-23T09:41:40.575Z,21.43
2023-01-23T09:44:15.315Z,22.90
2023-01-23T09:46:47.705Z,22.53
2023-01-23T09:49:25.188Z,23.70
2023-01-23T09:51:58.626Z,23.50
2023-01-23T09:54:43.220Z,23.27
2023-01-23T09:57:16.106Z,22.40
2023-01-23T09:59:59.968Z,22.97
2023-01-23T10:02:29.531Z,40.60
2023-01-23T10:04:59.273Z,29.00
2023-01-23T10:07:54.071Z,26.57
2023-01-23T10:10:50.358Z,28.60
2023-01-23T10:13:20.981Z,26.67
2023-01-23T10:16:11.396Z,26.37
2023-01-23T10:18:46.332Z,24.73
2023-01-23T10:21:21.992Z,26.07
2023-01-23T10:24:00.038Z,25.23
2023-01-23T10:26:31.910Z,24.67
2023-01-23T10:29:03.728Z,25.43
2023-01-23T10:31:39.729Z,23.73
2023-01-23T10:34:17.620Z,23.23
2023-01-23T10:36:56.464Z,24.47
2023-01-23T10:39:28.843Z,23.50
2023-01-23T10:42:02.027Z,23.80
2023-01-23T10:44:30.617Z,23.20
2023-01-23T10:47:03.794Z,22.90
2023-01-23T10:49:35.462Z,21.40
2023-01-23T10:52:03.400Z,21.07
2023-01-23T10:54:33.232Z,22.03
2023-01-23T10:57:03.489Z,21.90
2023-01-23T10:59:35.510Z,21.73
2023-01-23T11:02:29.166Z,20.63
2023-01-23T11:04:57.156Z,20.93
2023-01-23T11:07:26.850Z,21.27
2023-01-23T11:09:56.923Z,19.97
2023-01-23T11:12:26.994Z,21.20
2023-01-23T11:15:14.048Z,20.63
2023-01-23T11:17:44.366Z,21.13
2023-01-23T11:20:22.275Z,20.47
2023-01-23T11:23:02.808Z,21.63
2023-01-23T11:25:32.435Z,20.97
2023-01-23T11:28:02.563Z,21.70
2023-01-23T11:30:40.340Z,21.77
2023-01-23T11:33:28.379Z,20.77
2023-01-23T11:36:03.409Z,20.07
2023-01-23T11:38:37.717Z,19.73
2023-01-23T11:41:12.907Z,19.47
2023-01-23T11:43:41.145Z,18.83
2023-01-23T11:46:32.446Z,18.33
2023-01-23T11:49:24.360Z,19.87
2023-01-23T11:52:04.079Z,18.70
2023-01-23T11:54:50.224Z,17.37
2023-01-23T11:57:28.139Z,17.03
2023-01-23T12:00:13.123Z,17.60
2023-01-23T12:03:22.149Z,18.60
2023-01-23T12:06:19.309Z,17.90
2023-01-23T12:08:54.738Z,18.93
2023-01-23T12:11:24.438Z,19.63
2023-01-23T12:14:06.253Z,17.97
2023-01-23T12:16:48.380Z,18.07
2023-01-23T12:19:28.525Z,19.90
2023-01-23T12:22:08.539Z,19.03
2023-01-23T12:24:52.200Z,18.83
2023-01-23T12:27:28.723Z,19.27
2023-01-23T12:30:25.271Z,19.70
2023-01-23T12:33:03.642Z,21.10
2023-01-23T12:35:41.864Z,20.37
2023-01-23T12:38:25.097Z,19.53
2023-01-23T12:40:59.168Z,20.40
2023-01-23T12:43:36.866Z,19.93
2023-01-23T12:46:08.764Z,20.87
2023-01-23T12:48:44.041Z,20.70
2023-01-23T12:51:17.838Z,19.27
2023-01-23T12:53:51.960Z,20.63
2023-01-23T12:56:24.365Z,19.37
2023-01-23T12:58:57.483Z,18.97
2023-01-23T13:01:38.477Z,19.87
2023-01-23T13:04:20.131Z,20.33
2023-01-23T13:07:08.217Z,21.07
2023-01-23T13:09:49.004Z,20.47
2023-01-23T13:12:21.870Z,20.60
2023-01-23T13:17:40.799Z,18.50
2023-01-23T13:20:45.896Z,17.87
2023-01-23T13:23:28.654Z,17.90
2023-01-23T13:26:30.919Z,18.20
2023-01-23T13:29:02.164Z,17.97
2023-01-23T13:31:40.273Z,19.43
2023-01-23T13:34:37.241Z,19.27
2023-01-23T13:37:50.950Z,18.30
2023-01-23T13:40:22.550Z,17.67
2023-01-23T13:42:51.890Z,17.70
2023-01-23T13:45:28.564Z,17.43
2023-01-23T14:23:30.680Z,16.97
2023-01-23T14:25:58.884Z,17.97
2023-01-23T14:28:27.492Z,17.13
2023-01-23T14:31:03.142Z,17.20
2023-01-23T14:33:41.556Z,16.83
2023-01-23T14:36:16.316Z,17.37
2023-01-23T14:38:45.856Z,16.77
2023-01-23T14:41:14.153Z,17.03
2023-01-23T14:43:43.580Z,19.07
2023-01-23T14:46:33.672Z,17.90
2023-01-23T14:49:04.404Z,18.27
2023-01-23T14:51:36.465Z,18.63
2023-01-23T14:54:10.012Z,17.83
2023-01-23T14:56:40.444Z,17.00
2023-01-23T14:59:20.119Z,18.33
2023-01-23T15:01:55.067Z,16.97
2023-01-23T15:04:26.607Z,17.03
2023-01-23T15:06:57.244Z,17.00
2023-01-23T15:09:31.032Z,16.97
2023-01-23T15:12:06.701Z,16.90
2023-01-23T15:14:37.828Z,15.70
2023-01-23T15:17:08.091Z,15.53
2023-01-23T15:19:38.551Z,15.40
2023-01-23T15:22:08.794Z,15.13
2023-01-23T15:24:36.641Z,15.47
2023-01-23T15:27:07.720Z,14.87
2023-01-23T15:29:35.832Z,14.43
2023-01-23T15:32:03.935Z,16.13
2023-01-23T15:34:34.071Z,15.90
2023-01-23T15:37:22.349Z,14.90
2023-01-23T15:39:53.032Z,14.40
2023-01-23T15:42:31.008Z,14.43
2023-01-23T15:45:01.449Z,14.97
2023-01-23T15:47:30.278Z,14.80
2023-01-23T15:50:01.446Z,15.17
2023-01-23T15:52:32.118Z,15.30
2023-01-23T15:55:02.207Z,14.57
2023-01-23T15:57:30.123Z,13.80
2023-01-23T15:59:57.914Z,13.67
2023-01-23T16:02:31.684Z,13.43
2023-01-23T16:05:01.957Z,14.87
2023-01-23T16:07:34.977Z,14.20
2023-01-23T16:10:04.790Z,13.37
2023-01-23T16:12:38.850Z,13.80
2023-01-23T16:15:15.999Z,13.93
2023-01-23T16:17:43.907Z,14.23
2023-01-23T16:20:15.445Z,13.87
2023-01-23T16:22:45.650Z,14.17
2023-01-23T16:25:20.213Z,14.10
2023-01-23T16:27:47.960Z,14.43
2023-01-23T16:30:19.698Z,15.03
2023-01-23T16:32:48.121Z,13.77
2023-01-23T16:35:17.187Z,14.10
2023-01-23T16:37:48.826Z,13.70
2023-01-23T16:40:18.873Z,15.60
2023-01-23T16:42:48.433Z,13.63
2023-01-23T16:45:17.945Z,14.60
2023-01-23T16:47:45.816Z,15.27
2023-01-23T16:50:14.953Z,14.80
2023-01-23T16:52:45.703Z,13.93
2023-01-23T16:55:22.793Z,14.37
2023-01-23T16:57:54.257Z,14.20
2023-01-23T17:00:34.081Z,14.63
2023-01-23T17:03:05.719Z,14.80
2023-01-23T17:05:33.600Z,14.47
2023-01-23T17:08:01.463Z,14.60
2023-01-23T17:10:45.293Z,18.83
2023-01-23T17:13:15.125Z,17.67
2023-01-23T17:15:43.089Z,20.57
2023-01-23T17:18:21.486Z,20.90
2023-01-23T17:20:49.592Z,16.27
2023-01-23T17:23:17.540Z,14.33
2023-01-23T17:25:59.203Z,14.97
2023-01-23T17:28:28.889Z,13.30
2023-01-23T17:31:00.525Z,13.30
2023-01-23T17:33:31.605Z,13.30
2023-01-23T17:36:01.103Z,12.73
2023-01-23T17:38:31.766Z,12.20
2023-01-23T17:41:01.282Z,11.70
2023-01-23T17:43:29.452Z,12.20
2023-01-23T17:45:57.559Z,11.57
2023-01-23T17:48:28.841Z,12.23
2023-01-23T17:50:57.145Z,12.23
2023-01-23T17:53:30.781Z,12.50
2023-01-23T17:55:59.884Z,11.77
2023-01-23T17:58:27.621Z,12.80
2023-01-23T18:00:56.211Z,11.80
2023-01-23T18:03:24.719Z,12.37
2023-01-23T18:05:52.626Z,12.67
2023-01-23T18:08:22.612Z,14.00
2023-01-23T18:10:53.530Z,13.60
2023-01-23T18:13:29.668Z,14.20
2023-01-23T18:16:08.048Z,13.67
2023-01-23T18:18:38.705Z,13.50
2023-01-23T18:21:12.551Z,15.03
2023-01-23T18:23:41.019Z,14.37
2023-01-23T18:26:24.917Z,13.77
2023-01-23T18:29:02.595Z,14.80
2023-01-23T18:31:40.673Z,14.80
2023-01-23T18:34:19.823Z,14.93
2023-01-23T18:36:59.964Z,75.23
2023-01-23T18:39:38.760Z,15.13
2023-01-23T18:42:18.388Z,15.33
2023-01-23T18:44:55.493Z,15.53
2023-01-23T18:47:25.418Z,15.60
2023-01-23T18:49:53.988Z,15.20
2023-01-23T18:52:26.087Z,15.47
2023-01-23T18:55:02.033Z,14.83
2023-01-23T18:57:46.802Z,14.10
2023-01-23T19:00:20.135Z,13.97
2023-01-23T19:02:52.224Z,16.43
2023-01-23T19:05:29.576Z,14.80
2023-01-23T19:07:57.901Z,14.37
2023-01-23T19:10:29.241Z,13.50
2023-01-23T19:13:14.501Z,14.00
2023-01-23T19:15:51.645Z,13.57
2023-01-23T19:18:40.095Z,14.20
2023-01-23T19:21:15.510Z,13.40
2023-01-23T19:23:50.190Z,14.27
2023-01-23T19:26:19.204Z,14.37
2023-01-23T19:28:47.477Z,13.97
2023-01-23T19:31:21.805Z,12.80
2023-01-23T19:33:50.255Z,13.33
2023-01-23T19:36:18.341Z,13.47
2023-01-23T19:38:46.456Z,12.73
2023-01-23T19:41:20.504Z,13.87
2023-01-23T19:43:50.182Z,14.57
2023-01-23T19:46:19.589Z,15.50
2023-01-23T19:48:47.565Z,15.03
2023-01-23T19:51:19.554Z,15.37
2023-01-23T19:53:47.804Z,15.20
2023-01-23T19:56:18.008Z,15.87
2023-01-23T19:58:46.236Z,15.23
2023-01-23T20:01:23.790Z,17.85
2023-01-23T20:03:52.144Z,16.33
2023-01-23T20:06:20.138Z,14.27
2023-01-23T20:08:48.038Z,15.70
2023-01-23T20:11:15.924Z,15.50
2023-01-23T20:13:43.700Z,14.70
2023-01-23T20:16:18.031Z,14.43
2023-01-23T20:18:48.137Z,13.90
2023-01-23T20:21:16.782Z,14.67
2023-01-23T20:23:45.019Z,14.67
2023-01-23T20:26:13.448Z,14.77
2023-01-23T20:28:41.588Z,15.27
2023-01-23T20:31:12.070Z,16.57
2023-01-23T20:33:40.417Z,16.20
2023-01-23T20:36:11.360Z,15.83
2023-01-23T20:38:39.763Z,15.00
2023-01-23T20:41:09.640Z,14.37
2023-01-23T20:43:38.211Z,16.10
2023-01-23T20:46:07.848Z,14.23
2023-01-23T20:48:36.083Z,15.23
2023-01-23T20:51:04.406Z,14.87
2023-01-23T20:53:35.003Z,14.63
2023-01-23T20:56:04.573Z,14.57
2023-01-23T20:58:51.050Z,15.10
2023-01-23T21:01:20.361Z,14.87
2023-01-23T21:03:50.305Z,13.87
2023-01-23T21:06:19.290Z,14.27
2023-01-23T21:08:48.692Z,13.50
2023-01-23T21:11:19.903Z,13.33
2023-01-23T21:13:53.485Z,13.30
2023-01-23T21:16:21.253Z,13.37
2023-01-23T21:18:49.277Z,13.23
2023-01-23T21:21:19.981Z,11.97
2023-01-23T21:23:49.674Z,13.50
2023-01-23T21:26:19.451Z,13.03
2023-01-23T21:28:48.434Z,13.50
2023-01-23T21:31:18.701Z,13.47
2023-01-23T21:33:46.789Z,13.37
2023-01-23T21:36:15.984Z,13.43
2023-01-23T21:38:43.916Z,13.67
2023-01-23T21:41:13.481Z,14.30
2023-01-23T21:43:41.321Z,13.30
2023-01-23T21:46:09.316Z,11.53
2023-01-23T21:48:37.154Z,11.63
2023-01-23T21:51:06.705Z,50.90
2023-01-23T21:53:35.000Z,12.87
2023-01-23T21:56:02.872Z,13.43
2023-01-23T21:58:32.069Z,12.53
2023-01-23T22:01:18.410Z,13.13
2023-01-23T22:03:46.575Z,13.27
2023-01-23T22:06:14.907Z,13.27
2023-01-23T22:08:42.779Z,13.97
2023-01-23T22:11:12.058Z,12.70
2023-01-23T22:13:41.318Z,13.20
2023-01-23T22:16:09.549Z,13.47
2023-01-23T22:18:37.369Z,12.37
2023-01-23T22:21:06.807Z,12.77
2023-01-23T22:23:35.093Z,12.87
2023-01-23T22:26:04.348Z,14.60
2023-01-23T22:28:32.158Z,13.77
2023-01-23T22:31:09.975Z,13.33
2023-01-23T22:33:40.920Z,13.50
2023-01-23T22:36:12.409Z,12.73
2023-01-23T22:38:40.304Z,14.07
2023-01-23T22:41:08.366Z,13.63
2023-01-23T22:43:36.168Z,13.63
2023-01-23T22:46:07.123Z,12.97
2023-01-23T22:48:35.705Z,12.80
2023-01-23T22:51:05.197Z,12.80
2023-01-23T22:53:33.412Z,13.33
2023-01-23T22:56:05.738Z,11.70
2023-01-23T22:58:33.586Z,11.67
2023-01-23T23:01:01.819Z,11.93
2023-01-23T23:03:33.673Z,12.67
2023-01-23T23:06:03.889Z,12.57
2023-01-23T23:08:32.545Z,12.23
2023-01-23T23:11:02.068Z,13.20
2023-01-23T23:13:31.411Z,12.40
2023-01-23T23:16:04.022Z,12.30
2023-01-23T23:18:33.208Z,12.27
2023-01-23T23:21:01.980Z,12.97
2023-01-23T23:23:30.275Z,12.30
2023-01-23T23:25:58.660Z,12.30
2023-01-23T23:28:30.405Z,11.83
2023-01-23T23:30:58.198Z,12.53
2023-01-23T23:33:26.093Z,12.50
2023-01-23T23:35:55.452Z,12.27
2023-01-23T23:38:23.415Z,11.60
2023-01-23T23:40:57.823Z,12.17
2023-01-23T23:43:26.073Z,11.93
2023-01-23T23:45:54.888Z,12.33
2023-01-23T23:48:23.324Z,12.87
2023-01-23T23:50:51.399Z,12.60
2023-01-23T23:53:20.510Z,13.73
2023-01-23T23:55:48.631Z,12.30
2023-01-23T23:58:16.948Z,12.70
